Time;durP1;ratioP1;P1;durP2;ratioP2;P2;SDS_P1;SDS_P2;PMS_P1;PMS_P2;Temp;Humidity;BMP_temperature;BMP_pressure;BME280_temperature;BME280_humidity;BME280_pressure;Samples;Min_cycle;Max_cycle;Signal;HPM_P1;HPM_P2
2023/05/06 00:02:00;;;;;;;10.80;4.20;;;;;;;42.48;32.80;101109.66;5084505;28;20183;-89
2023/05/06 00:04:26;;;;;;;14.90;3.63;;;;;;;42.52;32.49;101118.78;5090883;28;20179;-88
2023/05/06 00:06:53;;;;;;;12.17;3.10;;;;;;;42.49;32.66;101114.00;5092614;28;20424;-87
2023/05/06 00:09:19;;;;;;;15.33;4.03;;;;;;;42.50;32.45;101115.59;5079297;28;20428;-86
2023/05/06 00:11:46;;;;;;;9.60;3.53;;;;;;;42.47;32.82;101111.56;5077786;28;20436;-86
2023/05/06 00:14:12;;;;;;;10.60;4.37;;;;;;;42.46;32.52;101109.97;5077542;28;20928;-85
2023/05/06 00:16:38;;;;;;;15.37;5.30;;;;;;;42.37;32.76;101109.25;5077774;28;20466;-86
2023/05/06 00:19:04;;;;;;;9.40;2.90;;;;;;;42.38;33.02;101100.75;5077285;28;20243;-85
2023/05/06 00:21:30;;;;;;;17.70;3.73;;;;;;;42.46;32.74;101101.00;5080405;28;20523;-86
2023/05/06 00:23:56;;;;;;;12.70;2.83;;;;;;;42.36;32.50;101097.56;5095508;28;20178;-86
2023/05/06 00:26:22;;;;;;;8.83;2.80;;;;;;;42.40;32.71;101103.13;5086040;28;20421;-85
2023/05/06 00:28:48;;;;;;;12.53;2.80;;;;;;;42.46;32.72;101098.28;5093415;28;20183;-84
2023/05/06 00:31:14;;;;;;;11.33;2.57;;;;;;;42.49;32.95;101084.00;5093918;28;20218;-86
2023/05/06 00:33:40;;;;;;;9.50;4.13;;;;;;;42.45;32.58;101085.78;5093358;28;20955;-85
2023/05/06 00:36:06;;;;;;;8.70;2.77;;;;;;;42.45;32.80;101083.06;5084643;28;21035;-86
2023/05/06 00:38:32;;;;;;;8.07;2.60;;;;;;;42.20;33.14;101061.09;5076627;28;20558;-86
2023/05/06 00:40:58;;;;;;;12.90;2.73;;;;;;;42.33;32.92;101070.16;5081927;28;21044;-85
2023/05/06 00:43:24;;;;;;;12.47;3.17;;;;;;;42.34;33.22;101064.34;5077959;28;20183;-85
2023/05/06 00:45:50;;;;;;;10.10;4.00;;;;;;;42.26;33.58;101059.78;5080976;28;20562;-85
2023/05/06 00:48:17;;;;;;;12.30;3.47;;;;;;;42.24;33.48;101061.25;5078657;28;20421;-85
2023/05/06 00:50:44;;;;;;;10.57;3.53;;;;;;;42.37;34.08;101058.25;5077935;28;20424;-85
2023/05/06 00:53:10;;;;;;;10.53;3.93;;;;;;;42.33;34.55;101059.25;5077230;28;20467;-86
2023/05/06 00:55:38;;;;;;;12.50;2.90;;;;;;;42.28;34.14;101048.53;5076511;28;20540;-85
2023/05/06 00:58:04;;;;;;;10.93;2.97;;;;;;;42.14;34.70;101054.22;5078736;28;20993;-86
2023/05/06 01:00:30;;;;;;;11.93;2.80;;;;;;;42.18;34.43;101035.31;5091068;28;21012;-86
2023/05/06 01:02:57;;;;;;;12.03;4.00;;;;;;;42.13;34.24;101020.72;5080961;28;20424;-86
2023/05/06 01:05:28;;;;;;;8.73;2.80;;;;;;;42.08;34.47;101017.38;5076638;28;20428;-85
2023/05/06 01:08:20;;;;;;;10.97;2.90;;;;;;;42.11;34.35;101022.97;5076767;28;20796;-85
2023/05/06 01:10:49;;;;;;;10.80;3.50;;;;;;;42.13;33.96;101014.47;5076213;28;20429;-86
2023/05/06 01:13:42;;;;;;;15.27;4.10;;;;;;;41.98;34.44;101001.41;5076581;28;20940;-85
2023/05/06 01:16:11;;;;;;;12.63;3.13;;;;;;;42.11;34.55;100998.44;5061135;28;20449;-85
2023/05/06 01:18:38;;;;;;;14.50;3.00;;;;;;;41.98;33.67;101004.13;5088310;28;20515;-85
2023/05/06 01:21:04;;;;;;;13.60;3.30;;;;;;;41.99;34.04;101000.28;5075829;28;20494;-86
2023/05/06 01:23:58;;;;;;;13.07;2.93;;;;;;;42.05;33.51;101010.69;5075975;28;20449;-86
2023/05/06 01:26:25;;;;;;;11.30;2.73;;;;;;;42.00;33.47;100999.97;5074246;28;20417;-86
2023/05/06 01:28:51;;;;;;;9.50;2.73;;;;;;;41.97;34.00;100989.72;5075870;28;20862;-85
2023/05/06 01:31:31;;;;;;;12.53;4.23;;;;;;;42.06;34.46;100989.66;5076480;28;20509;-86
2023/05/06 01:34:02;;;;;;;14.30;3.97;;;;;;;42.03;34.09;100993.84;5075667;28;20815;-85
2023/05/06 01:37:03;;;;;;;10.40;4.37;;;;;;;42.02;34.24;100986.81;5075871;28;20892;-86
2023/05/06 01:39:31;;;;;;;8.93;3.17;;;;;;;41.87;34.78;100987.41;5075764;28;20475;-86
2023/05/06 01:42:00;;;;;;;9.93;2.87;;;;;;;42.00;34.88;100982.81;5059529;28;20516;-85
2023/05/06 01:44:32;;;;;;;8.17;3.10;;;;;;;41.98;34.94;100982.34;5073062;28;20551;-84
2023/05/06 01:46:59;;;;;;;14.83;3.70;;;;;;;41.86;35.43;100985.78;5075896;28;21021;-86
2023/05/06 01:49:26;;;;;;;7.93;2.83;;;;;;;41.84;35.66;100982.59;5074846;28;20804;-85
2023/05/06 01:51:54;;;;;;;10.50;3.17;;;;;;;41.99;35.26;100987.47;5093932;28;20489;-85
2023/05/06 01:54:20;;;;;;;7.53;2.80;;;;;;;41.86;35.51;100988.50;5075511;28;20503;-84
2023/05/06 01:56:46;;;;;;;11.97;3.43;;;;;;;42.03;35.21;100988.38;5075453;28;20924;-85
2023/05/06 01:59:12;;;;;;;21.83;3.50;;;;;;;41.97;34.58;100983.47;5075183;28;21032;-87
2023/05/06 02:01:38;;;;;;;7.07;2.40;;;;;;;42.13;34.37;100987.22;5075630;28;20480;-86
2023/05/06 02:04:04;;;;;;;14.07;2.60;;;;;;;41.99;34.21;100983.94;5075473;28;20432;-88
2023/05/06 02:06:30;;;;;;;9.47;3.00;;;;;;;41.93;34.39;100977.09;5075187;28;20457;-87
2023/05/06 02:08:56;;;;;;;9.93;3.50;;;;;;;42.02;34.59;100977.84;5075250;28;20462;-88
2023/05/06 02:11:22;;;;;;;9.53;3.57;;;;;;;41.96;34.89;100981.88;5075432;28;20508;-88
2023/05/06 02:13:48;;;;;;;9.63;3.00;;;;;;;42.06;34.69;100985.03;5075063;28;20647;-84
2023/05/06 02:16:14;;;;;;;10.83;4.40;;;;;;;42.06;34.49;100984.22;5075050;28;20479;-84
2023/05/06 02:18:40;;;;;;;15.20;3.43;;;;;;;42.03;34.58;100982.94;5083660;28;20928;-85
2023/05/06 02:21:07;;;;;;;10.40;3.00;;;;;;;42.05;33.91;100979.88;5075195;28;20836;-85
2023/05/06 02:23:32;;;;;;;16.33;2.93;;;;;;;42.05;33.93;100980.69;5075071;28;20461;-88
2023/05/06 02:25:58;;;;;;;11.33;3.70;;;;;;;42.14;34.11;100986.88;5075023;28;20425;-87
2023/05/06 02:28:24;;;;;;;11.30;3.10;;;;;;;42.10;34.16;100985.94;5074918;28;20229;-85
2023/05/06 02:30:57;;;;;;;11.37;4.27;;;;;;;42.06;34.47;100976.84;5075198;28;20405;-85
2023/05/06 02:33:23;;;;;;;14.30;4.20;;;;;;;42.13;34.10;100979.03;5074858;28;20445;-85
2023/05/06 02:35:50;;;;;;;13.90;3.63;;;;;;;42.01;34.53;100973.50;5074692;28;20932;-85
2023/05/06 02:38:17;;;;;;;19.33;5.30;;;;;;;42.10;34.02;100969.56;5074654;28;20527;-85
2023/05/06 02:40:42;;;;;;;10.10;2.50;;;;;;;42.10;33.27;100972.31;5074746;28;20456;-85
2023/05/06 02:43:08;;;;;;;13.60;4.57;;;;;;;42.15;33.71;100974.03;5074149;28;20435;-85
2023/05/06 02:45:34;;;;;;;10.93;3.60;;;;;;;42.16;33.64;100978.38;5074531;28;20203;-85
2023/05/06 02:48:00;;;;;;;15.03;3.67;;;;;;;42.20;33.92;100975.81;5078643;28;20490;-84
2023/05/06 02:50:26;;;;;;;14.53;3.43;;;;;;;42.11;34.01;100986.72;5074785;28;20261;-84
2023/05/06 02:52:52;;;;;;;13.63;3.17;;;;;;;42.16;33.92;100988.47;5074347;28;20449;-85
2023/05/06 02:55:18;;;;;;;12.20;4.00;;;;;;;42.28;33.80;100994.00;5074502;28;20736;-85
2023/05/06 02:57:44;;;;;;;11.93;2.80;;;;;;;42.31;33.63;100993.34;5092672;28;20432;-85
2023/05/06 03:00:11;;;;;;;8.60;2.60;;;;;;;42.34;33.61;100995.41;5092697;28;20476;-85
2023/05/06 03:02:38;;;;;;;12.50;3.70;;;;;;;42.32;33.20;100993.00;5074376;28;20470;-87
2023/05/06 03:05:04;;;;;;;8.00;2.47;;;;;;;42.36;33.16;100993.16;5093120;28;20416;-88
2023/05/06 03:07:30;;;;;;;12.73;4.70;;;;;;;42.35;32.83;101000.50;5074239;28;20512;-87
2023/05/06 03:09:56;;;;;;;7.63;2.50;;;;;;;42.30;32.64;100986.31;5084834;28;20432;-85
2023/05/06 03:12:22;;;;;;;10.03;3.50;;;;;;;42.35;33.10;100995.06;5073959;28;20413;-85
2023/05/06 03:14:48;;;;;;;14.20;3.53;;;;;;;42.38;32.92;100994.41;5074774;28;20424;-86
2023/05/06 03:17:14;;;;;;;19.03;4.10;;;;;;;42.45;32.67;101001.25;5074111;28;20181;-85
2023/05/06 03:19:40;;;;;;;9.60;3.53;;;;;;;42.45;32.59;100991.13;5074645;28;20456;-85
2023/05/06 03:22:06;;;;;;;10.90;2.53;;;;;;;42.50;32.26;101001.03;5073822;28;20435;-85
2023/05/06 03:24:32;;;;;;;9.20;2.90;;;;;;;42.42;32.68;100983.63;5074661;28;20512;-86
2023/05/06 03:26:58;;;;;;;8.30;2.27;;;;;;;42.36;32.77;100984.97;5074250;28;20557;-85
2023/05/06 03:29:24;;;;;;;8.60;2.70;;;;;;;42.37;32.69;100987.34;5092841;28;20815;-85
2023/05/06 03:31:50;;;;;;;9.63;4.17;;;;;;;42.35;32.76;100980.63;5074425;28;20421;-88
2023/05/06 03:34:16;;;;;;;9.50;3.63;;;;;;;42.39;32.87;100985.09;5074564;28;20973;-88
2023/05/06 03:36:42;;;;;;;14.23;4.27;;;;;;;42.38;32.70;100971.78;5074368;28;20425;-87
2023/05/06 03:39:07;;;;;;;10.73;3.50;;;;;;;42.36;32.87;100974.88;5074143;28;20537;-87
2023/05/06 03:41:33;;;;;;;10.03;3.33;;;;;;;42.36;32.63;100980.31;5075975;28;20951;-87
2023/05/06 03:43:59;;;;;;;9.60;3.63;;;;;;;42.31;32.91;100977.00;5074467;28;20199;-88
2023/05/06 03:46:25;;;;;;;11.83;4.00;;;;;;;42.38;33.39;100979.97;5074217;28;20409;-88
2023/05/06 03:48:51;;;;;;;14.43;3.70;;;;;;;42.36;32.88;100980.31;5074634;28;20266;-86
2023/05/06 03:51:17;;;;;;;12.70;3.00;;;;;;;42.39;33.21;100976.09;5074164;28;20513;-85
2023/05/06 03:53:43;;;;;;;10.13;2.57;;;;;;;42.42;33.17;100978.19;5074920;28;20421;-87
2023/05/06 03:56:09;;;;;;;11.10;4.87;;;;;;;42.38;33.10;100975.31;5074095;28;20438;-88
2023/05/06 03:58:35;;;;;;;8.37;2.83;;;;;;;42.41;32.73;100976.56;5074406;28;20921;-88
2023/05/06 04:01:01;;;;;;;11.23;3.80;;;;;;;42.37;32.87;100978.38;5091708;28;20250;-85
2023/05/06 04:03:27;;;;;;;13.33;2.97;;;;;;;42.40;33.08;100983.94;5074403;28;20531;-85
2023/05/06 04:05:53;;;;;;;9.30;3.00;;;;;;;42.40;33.02;100994.06;5073866;28;20432;-85
2023/05/06 04:08:19;;;;;;;13.53;4.03;;;;;;;42.40;33.05;100989.41;5074254;28;20431;-86
2023/05/06 04:10:45;;;;;;;11.40;3.87;;;;;;;42.32;33.35;100987.56;5074035;28;20444;-85
2023/05/06 04:13:11;;;;;;;8.60;2.97;;;;;;;42.37;32.94;100986.56;5075284;28;20429;-86
2023/05/06 04:15:37;;;;;;;15.73;3.60;;;;;;;42.33;33.29;100989.16;5077359;28;20522;-86
2023/05/06 04:18:06;;;;;;;9.97;2.87;;;;;;;42.30;33.16;100994.50;5077642;28;20193;-86
2023/05/06 04:20:32;;;;;;;15.23;4.17;;;;;;;42.29;33.52;100985.47;5077132;28;20934;-86
2023/05/06 04:22:58;;;;;;;17.80;4.43;;;;;;;42.32;33.38;100993.00;5087229;28;20435;-85
2023/05/06 04:25:24;;;;;;;7.70;2.70;;;;;;;42.26;33.14;100978.00;5079307;28;20480;-86
2023/05/06 04:27:50;;;;;;;12.47;2.70;;;;;;;42.28;33.41;100980.38;5077613;28;20596;-86
2023/05/06 04:30:16;;;;;;;10.73;2.47;;;;;;;42.27;33.53;100986.97;5077099;28;20431;-86
2023/05/06 04:32:42;;;;;;;9.50;2.97;;;;;;;42.26;33.47;100975.25;5077283;28;20215;-86
2023/05/06 04:35:08;;;;;;;10.53;2.87;;;;;;;42.30;33.29;100986.31;5088501;28;20936;-86
2023/05/06 04:37:34;;;;;;;10.00;2.87;;;;;;;42.16;33.49;100975.66;5077193;28;20189;-85
2023/05/06 04:40:02;;;;;;;11.53;3.83;;;;;;;42.21;33.42;100977.38;5076889;28;20456;-85
2023/05/06 04:42:27;;;;;;;10.57;3.20;;;;;;;42.27;33.31;100979.56;5077178;28;20681;-86
2023/05/06 04:44:53;;;;;;;9.07;2.73;;;;;;;42.22;33.05;100979.78;5079996;28;20429;-85
2023/05/06 04:47:19;;;;;;;10.80;3.27;;;;;;;42.21;33.58;100974.66;5079198;28;20206;-87
2023/05/06 04:49:45;;;;;;;9.93;3.37;;;;;;;42.18;33.06;100973.41;5076863;28;20550;-88
2023/05/06 04:52:11;;;;;;;8.17;3.20;;;;;;;42.21;33.26;100980.13;5080311;28;20208;-87
2023/05/06 04:54:37;;;;;;;10.57;2.70;;;;;;;42.17;33.64;100979.97;5076791;28;20509;-88
2023/05/06 04:57:03;;;;;;;15.40;2.87;;;;;;;42.19;33.69;100976.94;5077134;28;20277;-85
2023/05/06 04:59:29;;;;;;;11.30;3.47;;;;;;;42.15;33.50;100979.50;5076751;28;20247;-83
2023/05/06 05:01:55;;;;;;;11.30;3.40;;;;;;;42.22;33.33;100981.72;5077936;28;20510;-85
2023/05/06 05:04:21;;;;;;;13.00;4.50;;;;;;;42.15;33.73;100982.22;5090250;28;20204;-86
2023/05/06 05:06:46;;;;;;;13.20;2.87;;;;;;;42.21;33.53;100993.75;5094753;28;20602;-85
2023/05/06 05:09:12;;;;;;;14.30;4.73;;;;;;;42.26;34.06;100997.06;5089592;28;20178;-85
2023/05/06 05:11:38;;;;;;;14.73;6.80;;;;;;;42.03;34.71;101003.94;5076677;28;20428;-86
2023/05/06 05:14:04;;;;;;;13.53;6.70;;;;;;;42.06;34.80;100998.66;5076808;28;20436;-86
2023/05/06 05:16:30;;;;;;;14.27;7.87;;;;;;;42.10;34.41;101010.47;5077085;28;20451;-86
2023/05/06 05:18:56;;;;;;;21.50;7.70;;;;;;;42.10;34.50;101012.38;5079329;28;20636;-85
2023/05/06 05:21:22;;;;;;;16.87;7.27;;;;;;;42.09;34.44;101021.69;5076636;28;20468;-86
2023/05/06 05:23:48;;;;;;;16.90;7.40;;;;;;;42.13;34.77;101025.38;5077093;28;20452;-86
2023/05/06 05:26:14;;;;;;;13.10;8.20;;;;;;;42.14;34.51;101027.75;5094104;28;20210;-86
2023/05/06 05:28:40;;;;;;;21.00;11.00;;;;;;;42.14;34.51;101022.31;5076517;28;20296;-87
2023/05/06 05:31:06;;;;;;;18.27;9.10;;;;;;;42.13;34.74;101026.16;5075921;28;20526;-87
2023/05/06 05:33:32;;;;;;;23.83;10.80;;;;;;;42.10;34.48;101031.47;5076256;28;20983;-86
2023/05/06 05:35:58;;;;;;;19.50;10.43;;;;;;;42.11;34.40;101022.16;5076653;28;20204;-85
2023/05/06 05:38:24;;;;;;;24.83;14.83;;;;;;;42.09;34.64;101036.13;5087734;28;20199;-86
2023/05/06 05:40:50;;;;;;;30.97;12.47;;;;;;;42.08;34.67;101036.47;5076377;28;20475;-86
2023/05/06 05:43:16;;;;;;;19.73;10.63;;;;;;;42.09;34.61;101046.22;5076367;28;20418;-87
2023/05/06 05:45:42;;;;;;;25.03;11.77;;;;;;;42.11;34.53;101055.69;5075928;28;20440;-85
2023/05/06 05:48:08;;;;;;;19.77;13.10;;;;;;;42.14;34.51;101059.66;5100707;28;20445;-86
2023/05/06 05:50:34;;;;;;;27.77;12.50;;;;;;;42.15;34.54;101055.81;5076426;28;20959;-88
2023/05/06 05:53:00;;;;;;;29.10;14.67;;;;;;;42.14;34.57;101062.41;5075615;28;20449;-84
2023/05/06 05:55:28;;;;;;;25.43;13.27;;;;;;;42.12;34.79;101061.94;5076677;28;20445;-85
2023/05/06 05:57:54;;;;;;;25.87;14.30;;;;;;;42.16;34.73;101075.69;5077074;28;20259;-86
2023/05/06 06:00:20;;;;;;;25.13;15.30;;;;;;;42.14;34.72;101065.91;5073522;28;20514;-87
2023/05/06 06:02:46;;;;;;;29.33;16.03;;;;;;;42.13;34.90;101077.16;5075822;28;20194;-85
2023/05/06 06:05:12;;;;;;;32.10;16.20;;;;;;;42.09;34.69;101079.72;5075292;28;20428;-85
2023/05/06 06:07:39;;;;;;;28.20;17.50;;;;;;;42.09;34.76;101077.00;5076115;28;21082;-86
2023/05/06 06:10:06;;;;;;;32.80;19.50;;;;;;;42.13;34.77;101077.16;5081090;28;20805;-86
2023/05/06 06:12:31;;;;;;;34.17;19.57;;;;;;;42.07;34.93;101064.84;5093319;28;20435;-85
2023/05/06 06:14:57;;;;;;;51.87;22.20;;;;;;;42.09;34.85;101066.09;5075891;28;20432;-87
2023/05/06 06:17:23;;;;;;;27.53;17.83;;;;;;;42.08;34.78;101063.72;5074915;28;20425;-84
2023/05/06 06:19:50;;;;;;;28.83;19.43;;;;;;;42.11;34.84;101063.03;5076917;28;20244;-85
2023/05/06 06:22:16;;;;;;;40.63;21.50;;;;;;;42.07;35.21;101062.91;5089329;28;20436;-86
2023/05/06 06:24:42;;;;;;;35.20;22.53;;;;;;;42.09;35.14;101066.09;5091541;28;20417;-85
2023/05/06 06:27:08;;;;;;;41.77;22.33;;;;;;;42.12;35.29;101068.19;5090242;28;20429;-87
2023/05/06 06:29:34;;;;;;;32.03;21.37;;;;;;;42.07;35.12;101070.31;5094396;28;20540;-89
2023/05/06 06:32:02;;;;;;;52.50;33.60;;;;;;;42.04;35.47;101079.13;5089474;28;20751;-87
2023/05/06 06:34:28;;;;;;;43.90;29.50;;;;;;;42.06;35.34;101077.69;5093380;28;20424;-84
2023/05/06 06:36:54;;;;;;;36.80;24.13;;;;;;;42.10;35.59;101091.44;5088964;28;20437;-85
2023/05/06 06:39:20;;;;;;;30.17;21.73;;;;;;;42.08;36.02;101077.34;5088974;28;20431;-85
2023/05/06 06:41:46;;;;;;;33.60;20.80;;;;;;;42.17;35.81;101080.03;5076908;28;20662;-86
2023/05/06 06:44:12;;;;;;;32.53;22.00;;;;;;;42.12;36.11;101073.63;5075128;28;20432;-88
2023/05/06 06:46:38;;;;;;;33.83;21.63;;;;;;;42.18;36.06;101076.19;5076538;28;20283;-85
2023/05/06 06:49:04;;;;;;;30.80;20.90;;;;;;;42.22;36.37;101086.09;5088973;28;20699;-84
2023/05/06 06:51:30;;;;;;;33.27;21.80;;;;;;;42.26;36.08;101091.69;5086039;28;20451;-85
2023/05/06 06:53:56;;;;;;;34.63;20.90;;;;;;;42.31;36.02;101103.19;5085387;28;20432;-88
2023/05/06 06:56:22;;;;;;;31.53;18.70;;;;;;;42.26;35.75;101091.69;5091262;28;20420;-85
2023/05/06 06:58:48;;;;;;;27.33;18.97;;;;;;;42.28;35.88;101090.22;5082491;28;20810;-87
2023/05/06 07:01:14;;;;;;;21.60;17.53;;;;;;;42.21;35.74;101087.22;5068744;28;20844;-85
2023/05/06 07:03:40;;;;;;;27.57;16.20;;;;;;;42.25;35.34;101099.06;5066549;28;20958;-83
2023/05/06 07:06:07;;;;;;;23.00;13.90;;;;;;;42.29;34.74;101104.66;5074735;28;20417;-84
2023/05/06 07:08:37;;;;;;;36.73;16.90;;;;;;;42.25;35.61;101104.53;5074464;28;20479;-86
2023/05/06 07:11:03;;;;;;;34.30;13.67;;;;;;;42.32;35.26;101102.06;5073981;28;20430;-83
2023/05/06 07:13:29;;;;;;;16.70;11.80;;;;;;;42.32;34.75;101099.34;5074268;28;20421;-82
2023/05/06 07:15:55;;;;;;;23.00;15.30;;;;;;;42.34;35.05;101094.34;5070856;28;20272;-85
2023/05/06 07:18:21;;;;;;;23.60;15.57;;;;;;;42.38;35.33;101089.03;5067037;28;20959;-83
2023/05/06 07:20:47;;;;;;;17.70;13.47;;;;;;;42.41;35.28;101091.09;5073360;28;21062;-84
2023/05/06 07:23:13;;;;;;;24.13;15.00;;;;;;;42.37;35.62;101090.97;5072842;28;20190;-82
2023/05/06 07:25:39;;;;;;;21.07;12.30;;;;;;;42.41;35.02;101085.63;5073611;28;20421;-85
2023/05/06 07:28:05;;;;;;;23.20;10.40;;;;;;;42.38;34.90;101086.31;5073382;28;20202;-84
2023/05/06 07:30:31;;;;;;;25.17;11.67;;;;;;;42.40;34.53;101092.22;5072993;28;20202;-85
2023/05/06 07:32:56;;;;;;;16.87;9.27;;;;;;;42.38;34.59;101076.19;5074001;28;20498;-82
2023/05/06 07:35:22;;;;;;;18.27;12.57;;;;;;;42.47;34.35;101091.69;5073711;28;20449;-84
2023/05/06 07:37:50;;;;;;;21.60;11.83;;;;;;;42.47;34.60;101099.88;5073932;28;20431;-84
2023/05/06 07:40:16;;;;;;;24.13;11.97;;;;;;;42.52;34.05;101103.19;5073674;28;20255;-84
2023/05/06 07:42:42;;;;;;;16.30;7.80;;;;;;;42.47;34.24;101106.13;5073481;28;20876;-83
2023/05/06 07:45:08;;;;;;;14.10;7.33;;;;;;;42.54;34.08;101111.03;5072645;28;20425;-84
2023/05/06 07:47:35;;;;;;;17.60;8.53;;;;;;;42.51;34.77;101109.78;5072091;28;20217;-86
2023/05/06 07:50:01;;;;;;;13.20;7.40;;;;;;;42.60;34.06;101118.75;5076526;28;20443;-88
2023/05/06 07:52:27;;;;;;;19.00;9.93;;;;;;;42.56;34.25;101104.16;5076118;28;20437;-85
2023/05/06 07:54:53;;;;;;;17.33;11.90;;;;;;;42.60;34.75;101113.28;5075716;28;20482;-88
2023/05/06 07:57:19;;;;;;;14.07;7.93;;;;;;;42.64;34.40;101111.47;5076066;28;20421;-88
2023/05/06 07:59:49;;;;;;;13.17;7.90;;;;;;;42.64;34.08;101133.31;5077892;28;20480;-89
2023/05/06 08:02:16;;;;;;;19.67;7.10;;;;;;;42.67;34.26;101148.22;5076006;28;20486;-89
2023/05/06 08:04:43;;;;;;;23.23;11.47;;;;;;;42.63;34.63;101147.28;5092663;28;20425;-87
2023/05/06 08:07:10;;;;;;;16.10;8.13;;;;;;;42.65;34.23;101155.91;5092806;28;20456;-88
2023/05/06 08:09:36;;;;;;;13.67;7.40;;;;;;;42.63;34.32;101160.91;5078240;28;20834;-86
2023/05/06 08:12:02;;;;;;;15.20;6.90;;;;;;;42.67;34.44;101161.06;5094181;28;20447;-85
2023/05/06 08:14:28;;;;;;;17.80;5.70;;;;;;;42.61;34.52;101163.19;5094171;28;20428;-80
2023/05/06 08:16:54;;;;;;;12.97;7.27;;;;;;;42.64;33.93;101166.03;5098230;28;20416;-84
2023/05/06 08:19:20;;;;;;;12.53;5.80;;;;;;;42.68;34.03;101177.09;5065188;28;20431;-85
2023/05/06 08:21:47;;;;;;;15.83;9.37;;;;;;;42.74;33.73;101194.06;5106226;28;20421;-85
2023/05/06 08:24:14;;;;;;;18.33;13.53;;;;;;;42.73;34.16;101189.75;5060398;28;20413;-81
2023/05/06 08:26:40;;;;;;;16.83;7.30;;;;;;;42.74;33.85;101200.31;5093929;28;20429;-84
2023/05/06 08:29:06;;;;;;;17.73;9.10;;;;;;;42.77;33.86;101201.56;5080668;28;20433;-84
2023/05/06 08:31:33;;;;;;;13.77;8.43;;;;;;;42.76;34.06;101214.41;5084882;28;20417;-84
2023/05/06 08:33:58;;;;;;;19.37;8.57;;;;;;;42.80;34.16;101211.84;5089534;28;20420;-84
2023/05/06 08:36:25;;;;;;;12.90;5.57;;;;;;;42.71;34.22;101213.81;5087056;28;20819;-84
2023/05/06 08:38:51;;;;;;;16.40;9.00;;;;;;;42.76;34.26;101208.16;5076480;28;20475;-86
2023/05/06 08:41:19;;;;;;;14.37;6.80;;;;;;;42.81;34.38;101213.44;5082926;28;20487;-84
2023/05/06 08:43:46;;;;;;;10.90;6.40;;;;;;;42.82;34.23;101215.03;5079750;28;20892;-86
2023/05/06 08:46:13;;;;;;;13.77;6.80;;;;;;;42.82;33.89;101215.81;5086913;28;20504;-85
2023/05/06 08:48:39;;;;;;;9.73;4.90;;;;;;;42.87;34.25;101217.56;5077067;28;20413;-85
2023/05/06 08:51:07;;;;;;;14.37;8.10;;;;;;;42.89;33.74;101224.28;5068020;28;20491;-83
2023/05/06 08:53:33;;;;;;;11.67;5.93;;;;;;;42.80;34.35;101220.03;5100274;28;20968;-84
2023/05/06 08:56:06;;;;;;;11.20;6.00;;;;;;;42.87;34.03;101233.94;5094889;28;20417;-83
2023/05/06 08:58:37;;;;;;;12.83;4.73;;;;;;;42.95;34.05;101254.09;5076177;28;20424;-84
2023/05/06 09:01:04;;;;;;;9.10;4.40;;;;;;;43.00;34.27;101256.66;5076592;28;20483;-84
2023/05/06 09:03:31;;;;;;;12.93;7.57;;;;;;;43.00;33.99;101265.66;5083269;28;20421;-84
2023/05/06 09:05:57;;;;;;;14.17;9.27;;;;;;;43.07;33.93;101268.66;5075986;28;20420;-84
2023/05/06 09:08:23;;;;;;;11.13;6.43;;;;;;;43.12;33.80;101275.84;5076140;28;20921;-84
2023/05/06 09:10:49;;;;;;;10.33;5.80;;;;;;;43.15;34.04;101275.16;5075999;28;20987;-84
2023/05/06 09:13:18;;;;;;;16.67;5.73;;;;;;;43.02;34.06;101263.38;5079978;28;20432;-83
2023/05/06 09:15:46;;;;;;;11.20;7.50;;;;;;;43.15;33.60;101291.53;5075593;28;20953;-85
2023/05/06 09:18:13;;;;;;;14.83;4.03;;;;;;;43.11;33.56;101298.81;5075882;28;20457;-84
2023/05/06 09:20:45;;;;;;;11.10;5.47;;;;;;;43.08;33.60;101302.19;5075717;28;20474;-86
2023/05/06 09:23:13;;;;;;;16.90;5.80;;;;;;;43.13;33.66;101294.63;5085135;28;20980;-83
2023/05/06 09:25:39;;;;;;;11.30;4.80;;;;;;;43.19;33.64;101284.28;5075213;28;20433;-84
2023/05/06 09:28:10;;;;;;;19.43;5.53;;;;;;;43.28;33.40;101276.84;5075992;28;20429;-83
2023/05/06 09:30:41;;;;;;;10.30;3.20;;;;;;;43.30;33.46;101288.22;5063433;28;20421;-84
2023/05/06 09:33:08;;;;;;;9.80;4.37;;;;;;;43.27;33.68;101288.88;5078788;28;20536;-84
2023/05/06 09:35:39;;;;;;;9.27;4.67;;;;;;;43.27;33.39;101280.69;5075802;28;20409;-86
2023/05/06 09:38:06;;;;;;;14.47;10.00;;;;;;;43.35;33.40;101279.84;5075482;28;20907;-86
2023/05/06 09:40:32;;;;;;;15.93;6.43;;;;;;;43.33;33.05;101264.91;5075559;28;20452;-86
2023/05/06 09:42:59;;;;;;;11.30;4.53;;;;;;;43.35;33.06;101255.25;5075896;28;20467;-86
2023/05/06 09:45:26;;;;;;;8.77;3.40;;;;;;;43.37;33.18;101269.38;5075990;28;20955;-87
2023/05/06 09:47:54;;;;;;;13.53;4.40;;;;;;;43.28;32.96;101281.50;5075146;28;20429;-86
2023/05/06 09:50:21;;;;;;;8.17;2.90;;;;;;;43.27;33.39;101297.06;5075652;28;20413;-86
2023/05/06 09:52:48;;;;;;;13.73;5.80;;;;;;;43.29;33.31;101300.28;5094930;28;20478;-87
2023/05/06 09:55:16;;;;;;;11.70;3.70;;;;;;;43.27;33.43;101307.19;5085152;28;20452;-86
2023/05/06 09:57:43;;;;;;;10.13;4.23;;;;;;;43.28;33.52;101312.34;5075009;28;20421;-85
2023/05/06 10:00:13;;;;;;;15.23;3.43;;;;;;;43.36;33.23;101321.59;5081205;28;20508;-86
2023/05/06 10:02:46;;;;;;;11.03;6.80;;;;;;;43.34;32.78;101319.22;5093690;28;20508;-85
2023/05/06 10:05:13;;;;;;;17.60;9.77;;;;;;;43.40;32.72;101314.34;5088895;28;20475;-86
2023/05/06 10:07:42;;;;;;;15.03;8.13;;;;;;;43.56;32.66;101328.19;5091077;28;20417;-84
2023/05/06 10:10:13;;;;;;;10.40;6.17;;;;;;;43.61;32.34;101331.53;5082983;28;20816;-84
2023/05/06 10:12:39;;;;;;;14.13;5.43;;;;;;;43.66;32.53;101336.00;5075412;28;20420;-85
2023/05/06 10:15:06;;;;;;;8.07;3.80;;;;;;;43.65;32.65;101323.47;5082952;28;20459;-86
2023/05/06 10:17:33;;;;;;;12.53;5.00;;;;;;;43.65;32.85;101327.00;5074390;28;21057;-86
2023/05/06 10:20:00;;;;;;;11.53;3.70;;;;;;;43.69;32.91;101330.66;5084090;28;20453;-86
2023/05/06 10:22:54;;;;;;;11.50;3.17;;;;;;;43.75;32.95;101330.44;5075104;28;20413;-86
2023/05/06 10:25:42;;;;;;;8.83;3.10;;;;;;;43.75;32.44;101328.50;5072085;28;20768;-85
2023/05/06 10:28:10;;;;;;;13.50;4.03;;;;;;;43.70;32.35;101336.91;5075317;28;20459;-84
2023/05/06 10:30:39;;;;;;;9.23;2.90;;;;;;;43.60;32.10;101326.41;5075560;28;20994;-84
2023/05/06 10:33:07;;;;;;;10.33;3.13;;;;;;;43.60;31.93;101323.69;5077783;28;20420;-84
2023/05/06 10:36:06;;;;;;;7.60;2.83;;;;;;;43.49;31.43;101314.28;5075078;28;20428;-83
2023/05/06 10:38:36;;;;;;;8.00;2.30;;;;;;;43.51;32.06;101299.16;5075135;28;20476;-84
2023/05/06 10:41:03;;;;;;;8.70;2.73;;;;;;;43.58;32.73;101301.34;5085013;28;20881;-84
2023/05/06 10:43:31;;;;;;;9.07;2.40;;;;;;;43.61;32.69;101301.47;5075457;28;20507;-84
2023/05/06 10:46:07;;;;;;;12.43;3.47;;;;;;;43.64;32.78;101305.47;5074680;28;20441;-84
2023/05/06 10:48:37;;;;;;;7.23;2.33;;;;;;;43.62;32.46;101303.06;5076913;28;20420;-83
2023/05/06 10:51:25;;;;;;;8.10;2.97;;;;;;;43.68;32.37;101299.00;5085342;28;20866;-84
2023/05/06 10:54:03;;;;;;;10.80;2.83;;;;;;;43.77;32.47;101304.41;5102535;28;20469;-84
2023/05/06 10:56:33;;;;;;;10.00;3.33;;;;;;;43.76;32.07;101302.78;5090928;28;20494;-84
2023/05/06 10:59:08;;;;;;;12.47;3.10;;;;;;;43.76;31.93;101305.50;5081839;28;20433;-84
2023/05/06 11:01:42;;;;;;;9.50;3.20;;;;;;;43.87;32.35;101314.91;5086402;28;20459;-84
2023/05/06 11:04:17;;;;;;;9.43;2.93;;;;;;;43.77;32.54;101325.44;5087625;28;20503;-84
2023/05/06 11:06:52;;;;;;;58.20;17.90;;;;;;;43.24;31.87;101340.66;5084418;28;20424;-86
2023/05/06 11:09:19;;;;;;;249.70;42.83;;;;;;;42.25;31.71;101344.44;5089381;28;20493;-85
2023/05/06 12:05:12;;;;;;;15.07;4.43;;;;;;;41.30;35.78;101200.94;5128258;27;20484;-83
2023/05/06 12:07:42;;;;;;;14.20;5.90;;;;;;;41.39;35.11;101187.34;5135094;27;20454;-83
2023/05/06 12:10:34;;;;;;;12.80;4.10;;;;;;;41.54;34.39;101188.75;5141813;27;20422;-88
2023/05/06 12:13:23;;;;;;;13.20;3.70;;;;;;;41.54;34.14;101161.50;5143340;27;20521;-84
2023/05/06 12:16:27;;;;;;;;;;;;;;;;;;;;;